Carnival Destiny — C6FN4 — position and weather

sailwx.info

Track history (hours):
 
Tides and Currents Weather Stations Pressure Air Temp Water Temp Dewpoint Dewpoint Depression Visibility Wind Speed Wind Dir Waves Ship Positions

Carnival Destiny

Operator: Carnival Cruise Lines

Last reported at 2017-Oct-18 06:00 UTC. Time now 2017-Oct-18 12:58 UTC.
Position N 26°00' W 078°00'.

Type: Passenger vessel. MMSI: 308017000.

Wind from 120 at 8 knots

Barometer 1012.0 mb
Air temperature 27.0 ° C
Visibility: greater than 5.4 NM
Dewpoint 22.6 ° C
Water temperature 22.0 ° C

Date/timePositionNaut miles runAvg speedWind from/ knotsBaromVisibWave heightAir tempDewpointWater temp
2017-Oct-18 06:00N 26°00' W 078°00'3216.2 120 / 81012.0 5.4 27.022.622.0
2017-Oct-18 04:00N 25°42' W 077°30'27 1.7 090 / 121014.210.8 27.024.127.0
2017-Oct-17 12:00N 25°42' W 077°00'10717.8 100 / 61011.0 27.024.130.0
2017-Oct-17 06:00N 27°24' W 076°24'4824.1 100 / 101012.0 5.4 26.023.122.0
2017-Oct-17 04:00N 28°12' W 076°18'8521.4 1012.710.8 27.024.126.0
2017-Oct-17 00:00N 29°36' W 076°00'18918.9 270 / 51014.010.8 25.020.525.0
2017-Oct-16 14:00N 32°42' W 075°24'13917.4 230 / 101014.510.8 26.023.126.0
2017-Oct-16 06:00N 35°00' W 075°00'4322.9 220 / 181022.0 5.4 22.018.918.0
2017-Oct-16 04:05N 35°43' W 075°03'219.4
2017-Oct-16 04:01N 35°45' W 075°03'1019.1
2017-Oct-16 03:31N 35°54' W 075°05'1019.0
2017-Oct-16 03:00N 36°04' W 075°06'1018.6
2017-Oct-16 02:28N 36°14' W 075°09'919.1
2017-Oct-16 02:00N 36°20' W 075°16'1119.2
2017-Oct-16 01:25N 36°29' W 075°25'818.8
2017-Oct-16 01:00N 36°36' W 075°30'1118.8
2017-Oct-16 00:26N 36°43' W 075°40'816.9
2017-Oct-15 23:58N 36°49' W 075°46'715.6
2017-Oct-15 23:30N 36°53' W 075°54'713.6
2017-Oct-15 23:00N 36°57' W 076°01'612.7
2017-Oct-15 22:31N 36°59' W 076°08'714.4
2017-Oct-15 22:00N 37°00' W 076°17'510.2
2017-Oct-15 21:31N 36°56' W 076°20'4 8.2
2017-Oct-15 21:00N 36°52' W 076°19'2 3.4
2017-Oct-15 20:30N 36°51' W 076°18'0 0.3
2017-Oct-15 19:58N 36°51' W 076°18'0 0.0
2017-Oct-15 19:28N 36°51' W 076°18'0 0.0
2017-Oct-15 15:46N 36°51' W 076°18'0 0.0
2017-Oct-15 15:28N 36°51' W 076°18'0 0.0
2017-Oct-15 14:58N 36°51' W 076°18'0 0.0
2017-Oct-15 13:58N 36°51' W 076°18'0 0.0
2017-Oct-15 09:24N 36°51' W 076°18'2 4.8
2017-Oct-15 09:00N 36°52' W 076°20'5 9.1
2017-Oct-15 08:25N 36°57' W 076°20'510.9
2017-Oct-15 08:00N 37°00' W 076°16'715.2
2017-Oct-15 07:30N 36°59' W 076°07'714.8
2017-Oct-15 07:00N 36°57' W 075°58'713.6
2017-Oct-15 06:31N 36°52' W 075°51'916.2
2017-Oct-15 05:58N 36°51' W 075°40'818.3
2017-Oct-15 05:30N 36°58' W 075°34'1019.0
2017-Oct-15 05:00N 37°06' W 075°27'919.1
2017-Oct-15 04:31N 37°13' W 075°19'1018.9
2017-Oct-15 04:00N 37°20' W 075°11'919.0
2017-Oct-15 03:30N 37°27' W 075°03'1019.0
2017-Oct-15 02:59N 37°34' W 074°54'1020.8
2017-Oct-15 02:30N 37°41' W 074°45'1020.7
2017-Oct-15 02:01N 37°50' W 074°40'1120.8
2017-Oct-15 01:28N 38°01' W 074°34'1121.0
2017-Oct-15 00:58N 38°10' W 074°30'920.7
2017-Oct-15 00:31N 38°19' W 074°26'1020.8
2017-Oct-15 00:00N 38°29' W 074°21'1120.8
2017-Oct-14 23:29N 38°40' W 074°16'1020.7
2017-Oct-14 23:00N 38°49' W 074°12'1020.6
2017-Oct-14 22:30N 38°59' W 074°08'1020.6
2017-Oct-14 22:00N 39°08' W 074°03'1020.3
2017-Oct-14 21:30N 39°18' W 073°59'1020.3
2017-Oct-14 21:00N 39°27' W 073°55'1020.2
2017-Oct-14 20:30N 39°37' W 073°53'1020.4
2017-Oct-14 20:01N 39°47' W 073°52'1020.1
2017-Oct-14 19:31N 39°57' W 073°51'1020.1
2017-Oct-14 19:00N 40°08' W 073°50'918.9
2017-Oct-14 18:30N 40°17' W 073°49'917.3
2017-Oct-14 18:00N 40°26' W 073°50'612.0
2017-Oct-14 17:30N 40°30' W 073°56'713.6
2017-Oct-14 17:00N 40°34' W 074°02'612.7
2017-Oct-14 16:31N 40°41' W 074°02'611.2
2017-Oct-14 16:00N 40°46' W 074°00'0 0.7
2017-Oct-14 15:26N 40°46' W 073°60'0 0.0
2017-Oct-14 14:59N 40°46' W 073°60'0 0.0
2017-Oct-14 14:29N 40°46' W 073°60'0 0.0
2017-Oct-14 13:59N 40°46' W 073°60'0 0.0
2017-Oct-14 13:29N 40°46' W 073°60'0 0.0
2017-Oct-14 12:59N 40°46' W 073°60'0 0.0
2017-Oct-14 12:29N 40°46' W 073°60'0 0.0
2017-Oct-14 11:59N 40°46' W 073°60'0 0.0
2017-Oct-14 11:30N 40°46' W 073°60'0 0.4
2017-Oct-14 11:00N 40°46' W 074°00'2 3.7
2017-Oct-14 10:30N 40°44' W 074°01'4 9.2
2017-Oct-14 10:00N 40°40' W 074°03'612.8
2017-Oct-14 09:30N 40°34' W 074°02'713.6
2017-Oct-14 09:00N 40°29' W 073°55'612.2
2017-Oct-14 08:30N 40°27' W 073°48'611.0
2017-Oct-14 07:59N 40°27' W 073°40'611.9
2017-Oct-14 07:30N 40°28' W 073°33'2113.6
2017-Oct-14 06:00N 40°30' W 073°06'3612.2 060 / 151023.010.8 18.016.318.0
2017-Oct-14 03:00N 40°30' W 072°18'28313.5 090 / 151026.010.8 17.013.516.0
2017-Oct-13 06:00N 43°30' W 067°24'44 1.8 090 / 131029.610.8 12.0-0.213.0
2017-Oct-12 06:00N 43°30' W 066°24'5417.9 040 / 301023.510.8 10.0-3.512.5
2017-Oct-12 03:00N 43°18' W 065°12'14 0.7 020 / 251024.010.8 12.0 7.916.0
2017-Oct-11 06:00N 43°12' W 065°30'4824.1 310 / 201012.927.0 15.013.210.0
2017-Oct-11 04:00N 43°12' W 066°36'141 6.4 290 / 201016.010.8 17.013.512.0
2017-Oct-10 06:00N 42°54' W 069°48'11 7.0 240 / 251007.0 2.2 18.018.015.0
2017-Oct-10 04:22N 42°43' W 069°42'510.3
2017-Oct-10 03:52N 42°44' W 069°49'411.3
2017-Oct-10 03:30N 42°47' W 069°52'510.7
2017-Oct-10 03:00N 42°51' W 069°57'611.5
2017-Oct-10 02:30N 42°48' W 070°04'611.5
2017-Oct-10 02:00N 42°45' W 070°11'611.6
2017-Oct-10 01:30N 42°42' W 070°17'611.9
2017-Oct-10 01:00N 42°38' W 070°24'612.2
2017-Oct-10 00:30N 42°34' W 070°30'611.7
2017-Oct-10 00:00N 42°31' W 070°37'612.3
2017-Oct-09 23:30N 42°27' W 070°43'611.7
2017-Oct-09 23:00N 42°24' W 070°50'612.5
2017-Oct-09 22:31N 42°20' W 070°57'4 7.2
2017-Oct-09 22:01N 42°21' W 071°02'0 0.7
2017-Oct-09 21:28N 42°21' W 071°02'0 0.0
2017-Oct-09 20:58N 42°21' W 071°02'0 0.0
2017-Oct-09 20:28N 42°21' W 071°02'0 0.0
2017-Oct-09 19:58N 42°21' W 071°02'0 0.0
2017-Oct-09 19:28N 42°21' W 071°02'0 0.0
2017-Oct-09 18:58N 42°21' W 071°02'0 0.0
2017-Oct-09 18:28N 42°21' W 071°02'0 0.0
2017-Oct-09 17:58N 42°21' W 071°02'0 0.0
2017-Oct-09 17:28N 42°21' W 071°02'0 0.0
2017-Oct-09 16:58N 42°21' W 071°02'0 0.0
2017-Oct-09 16:28N 42°21' W 071°02'0 0.0
2017-Oct-09 15:58N 42°21' W 071°02'0 0.0
2017-Oct-09 15:28N 42°21' W 071°02'0 0.0
2017-Oct-09 14:58N 42°21' W 071°02'0 0.0
2017-Oct-09 14:28N 42°21' W 071°02'0 0.0
2017-Oct-09 13:58N 42°21' W 071°02'0 0.0
2017-Oct-09 13:28N 42°21' W 071°02'0 0.0
2017-Oct-09 12:58N 42°21' W 071°02'0 0.0
2017-Oct-09 12:28N 42°21' W 071°02'0 0.0
2017-Oct-09 11:58N 42°21' W 071°02'0 0.0
2017-Oct-09 11:28N 42°21' W 071°02'0 0.0
2017-Oct-09 10:58N 42°21' W 071°02'0 0.0
2017-Oct-09 10:29N 42°21' W 071°02'1 1.2
2017-Oct-09 10:00N 42°21' W 071°01'4 7.1
2017-Oct-09 09:30N 42°20' W 070°56'611.3
2017-Oct-09 09:00N 42°24' W 070°50'5 9.4
2017-Oct-09 08:30N 42°23' W 070°44'5 9.4
2017-Oct-09 08:00N 42°22' W 070°38'5 9.4
2017-Oct-09 07:30N 42°22' W 070°32'5 9.4
2017-Oct-09 07:00N 42°21' W 070°25'5 9.1
2017-Oct-09 06:30N 42°21' W 070°19'5 9.2
2017-Oct-09 06:00N 42°20' W 070°13'2154.3
2017-Oct-09 06:00N 42°18' W 070°12'5 9.4 220 / 241013.0 2.2 20.020.015.0
2017-Oct-09 05:30N 42°20' W 070°06'510.1
2017-Oct-09 05:00N 42°19' W 069°60'510.2
2017-Oct-09 04:30N 42°14' W 069°56'510.6
2017-Oct-09 04:00N 42°10' W 069°53'112 7.1
2017-Oct-08 12:20N 40°25' W 070°44'618.9
2017-Oct-08 12:00N 40°24' W 070°36'11172.3 200 / 281018.010.8 20.018.417.0
2017-Oct-08 11:56N 40°25' W 070°51'712.4
2017-Oct-08 11:21N 40°24' W 071°00'2512.1
2017-Oct-08 09:16N 40°24' W 071°33'511.8
2017-Oct-08 08:52N 40°23' W 071°39'611.9
2017-Oct-08 08:23N 40°23' W 071°47'712.2
2017-Oct-08 07:48N 40°23' W 071°57'412.5
2017-Oct-08 07:29N 40°23' W 072°02'812.3
2017-Oct-08 06:49N 40°23' W 072°12'412.2
2017-Oct-08 06:30N 40°22' W 072°18'612.4
2017-Oct-08 06:00N 40°22' W 072°25'7471.9
2017-Oct-08 06:00N 40°18' W 072°18'   220 / 221015.410.8 20.018.418.0
Track history (hours):
 
Tides and Currents Weather Stations Pressure Air Temp Water Temp Dewpoint Dewpoint Depression Visibility Wind Speed Wind Dir Waves Ship Positions

Carnival Destiny

Operator: Carnival Cruise Lines

Last reported at 2017-Oct-18 06:00 UTC. Time now 2017-Oct-18 12:58 UTC.
Position N 26°00' W 078°00'.

Type: Passenger vessel. MMSI: 308017000.

Wind from 120 at 8 knots

Barometer 1012.0 mb
Air temperature 27.0 ° C
Visibility: greater than 5.4 NM
Dewpoint 22.6 ° C
Water temperature 22.0 ° C

Date/timePositionNaut miles runAvg speedWind from/ knotsBaromVisibWave heightAir tempDewpointWater temp
2017-Oct-18 06:00N 26°00' W 078°00'3216.2 120 / 81012.0 5.4 27.022.622.0
2017-Oct-18 04:00N 25°42' W 077°30'27 1.7 090 / 121014.210.8 27.024.127.0
2017-Oct-17 12:00N 25°42' W 077°00'10717.8 100 / 61011.0 27.024.130.0
2017-Oct-17 06:00N 27°24' W 076°24'4824.1 100 / 101012.0 5.4 26.023.122.0
2017-Oct-17 04:00N 28°12' W 076°18'8521.4 1012.710.8 27.024.126.0
2017-Oct-17 00:00N 29°36' W 076°00'18918.9 270 / 51014.010.8 25.020.525.0
2017-Oct-16 14:00N 32°42' W 075°24'13917.4 230 / 101014.510.8 26.023.126.0
2017-Oct-16 06:00N 35°00' W 075°00'4322.9 220 / 181022.0 5.4 22.018.918.0
2017-Oct-16 04:05N 35°43' W 075°03'219.4
2017-Oct-16 04:01N 35°45' W 075°03'1019.1
2017-Oct-16 03:31N 35°54' W 075°05'1019.0
2017-Oct-16 03:00N 36°04' W 075°06'1018.6
2017-Oct-16 02:28N 36°14' W 075°09'919.1
2017-Oct-16 02:00N 36°20' W 075°16'1119.2
2017-Oct-16 01:25N 36°29' W 075°25'818.8
2017-Oct-16 01:00N 36°36' W 075°30'1118.8
2017-Oct-16 00:26N 36°43' W 075°40'816.9
2017-Oct-15 23:58N 36°49' W 075°46'715.6
2017-Oct-15 23:30N 36°53' W 075°54'713.6
2017-Oct-15 23:00N 36°57' W 076°01'612.7
2017-Oct-15 22:31N 36°59' W 076°08'714.4
2017-Oct-15 22:00N 37°00' W 076°17'510.2
2017-Oct-15 21:31N 36°56' W 076°20'4 8.2
2017-Oct-15 21:00N 36°52' W 076°19'2 3.4
2017-Oct-15 20:30N 36°51' W 076°18'0 0.3
2017-Oct-15 19:58N 36°51' W 076°18'0 0.0
2017-Oct-15 19:28N 36°51' W 076°18'0 0.0
2017-Oct-15 15:46N 36°51' W 076°18'0 0.0
2017-Oct-15 15:28N 36°51' W 076°18'0 0.0
2017-Oct-15 14:58N 36°51' W 076°18'0 0.0
2017-Oct-15 13:58N 36°51' W 076°18'0 0.0
2017-Oct-15 09:24N 36°51' W 076°18'2 4.8
2017-Oct-15 09:00N 36°52' W 076°20'5 9.1
2017-Oct-15 08:25N 36°57' W 076°20'510.9
2017-Oct-15 08:00N 37°00' W 076°16'715.2
2017-Oct-15 07:30N 36°59' W 076°07'714.8
2017-Oct-15 07:00N 36°57' W 075°58'713.6
2017-Oct-15 06:31N 36°52' W 075°51'916.2
2017-Oct-15 05:58N 36°51' W 075°40'818.3
2017-Oct-15 05:30N 36°58' W 075°34'1019.0
2017-Oct-15 05:00N 37°06' W 075°27'919.1
2017-Oct-15 04:31N 37°13' W 075°19'1018.9
2017-Oct-15 04:00N 37°20' W 075°11'919.0
2017-Oct-15 03:30N 37°27' W 075°03'1019.0
2017-Oct-15 02:59N 37°34' W 074°54'1020.8
2017-Oct-15 02:30N 37°41' W 074°45'1020.7
2017-Oct-15 02:01N 37°50' W 074°40'1120.8
2017-Oct-15 01:28N 38°01' W 074°34'1121.0
2017-Oct-15 00:58N 38°10' W 074°30'920.7
2017-Oct-15 00:31N 38°19' W 074°26'1020.8
2017-Oct-15 00:00N 38°29' W 074°21'1120.8
2017-Oct-14 23:29N 38°40' W 074°16'1020.7
2017-Oct-14 23:00N 38°49' W 074°12'1020.6
2017-Oct-14 22:30N 38°59' W 074°08'1020.6
2017-Oct-14 22:00N 39°08' W 074°03'1020.3
2017-Oct-14 21:30N 39°18' W 073°59'1020.3
2017-Oct-14 21:00N 39°27' W 073°55'1020.2
2017-Oct-14 20:30N 39°37' W 073°53'1020.4
2017-Oct-14 20:01N 39°47' W 073°52'1020.1
2017-Oct-14 19:31N 39°57' W 073°51'1020.1
2017-Oct-14 19:00N 40°08' W 073°50'918.9
2017-Oct-14 18:30N 40°17' W 073°49'917.3
2017-Oct-14 18:00N 40°26' W 073°50'612.0
2017-Oct-14 17:30N 40°30' W 073°56'713.6
2017-Oct-14 17:00N 40°34' W 074°02'612.7
2017-Oct-14 16:31N 40°41' W 074°02'611.2
2017-Oct-14 16:00N 40°46' W 074°00'0 0.7
2017-Oct-14 15:26N 40°46' W 073°60'0 0.0
2017-Oct-14 14:59N 40°46' W 073°60'0 0.0
2017-Oct-14 14:29N 40°46' W 073°60'0 0.0
2017-Oct-14 13:59N 40°46' W 073°60'0 0.0
2017-Oct-14 13:29N 40°46' W 073°60'0 0.0
2017-Oct-14 12:59N 40°46' W 073°60'0 0.0
2017-Oct-14 12:29N 40°46' W 073°60'0 0.0
2017-Oct-14 11:59N 40°46' W 073°60'0 0.0
2017-Oct-14 11:30N 40°46' W 073°60'0 0.4
2017-Oct-14 11:00N 40°46' W 074°00'2 3.7
2017-Oct-14 10:30N 40°44' W 074°01'4 9.2
2017-Oct-14 10:00N 40°40' W 074°03'612.8
2017-Oct-14 09:30N 40°34' W 074°02'713.6
2017-Oct-14 09:00N 40°29' W 073°55'612.2
2017-Oct-14 08:30N 40°27' W 073°48'611.0
2017-Oct-14 07:59N 40°27' W 073°40'611.9
2017-Oct-14 07:30N 40°28' W 073°33'2113.6
2017-Oct-14 06:00N 40°30' W 073°06'3612.2 060 / 151023.010.8 18.016.318.0
2017-Oct-14 03:00N 40°30' W 072°18'28313.5 090 / 151026.010.8 17.013.516.0
2017-Oct-13 06:00N 43°30' W 067°24'44 1.8 090 / 131029.610.8 12.0-0.213.0
2017-Oct-12 06:00N 43°30' W 066°24'5417.9 040 / 301023.510.8 10.0-3.512.5
2017-Oct-12 03:00N 43°18' W 065°12'14 0.7 020 / 251024.010.8 12.0 7.916.0
2017-Oct-11 06:00N 43°12' W 065°30'4824.1 310 / 201012.927.0 15.013.210.0
2017-Oct-11 04:00N 43°12' W 066°36'141 6.4 290 / 201016.010.8 17.013.512.0
2017-Oct-10 06:00N 42°54' W 069°48'11 7.0 240 / 251007.0 2.2 18.018.015.0
2017-Oct-10 04:22N 42°43' W 069°42'510.3
2017-Oct-10 03:52N 42°44' W 069°49'411.3
2017-Oct-10 03:30N 42°47' W 069°52'510.7
2017-Oct-10 03:00N 42°51' W 069°57'611.5
2017-Oct-10 02:30N 42°48' W 070°04'611.5
2017-Oct-10 02:00N 42°45' W 070°11'611.6
2017-Oct-10 01:30N 42°42' W 070°17'611.9
2017-Oct-10 01:00N 42°38' W 070°24'612.2
2017-Oct-10 00:30N 42°34' W 070°30'611.7
2017-Oct-10 00:00N 42°31' W 070°37'612.3
2017-Oct-09 23:30N 42°27' W 070°43'611.7
2017-Oct-09 23:00N 42°24' W 070°50'612.5
2017-Oct-09 22:31N 42°20' W 070°57'4 7.2
2017-Oct-09 22:01N 42°21' W 071°02'0 0.7
2017-Oct-09 21:28N 42°21' W 071°02'0 0.0
2017-Oct-09 20:58N 42°21' W 071°02'0 0.0
2017-Oct-09 20:28N 42°21' W 071°02'0 0.0
2017-Oct-09 19:58N 42°21' W 071°02'0 0.0
2017-Oct-09 19:28N 42°21' W 071°02'0 0.0
2017-Oct-09 18:58N 42°21' W 071°02'0 0.0
2017-Oct-09 18:28N 42°21' W 071°02'0 0.0
2017-Oct-09 17:58N 42°21' W 071°02'0 0.0
2017-Oct-09 17:28N 42°21' W 071°02'0 0.0
2017-Oct-09 16:58N 42°21' W 071°02'0 0.0
2017-Oct-09 16:28N 42°21' W 071°02'0 0.0
2017-Oct-09 15:58N 42°21' W 071°02'0 0.0
2017-Oct-09 15:28N 42°21' W 071°02'0 0.0
2017-Oct-09 14:58N 42°21' W 071°02'0 0.0
2017-Oct-09 14:28N 42°21' W 071°02'0 0.0
2017-Oct-09 13:58N 42°21' W 071°02'0 0.0
2017-Oct-09 13:28N 42°21' W 071°02'0 0.0
2017-Oct-09 12:58N 42°21' W 071°02'0 0.0
2017-Oct-09 12:28N 42°21' W 071°02'0 0.0
2017-Oct-09 11:58N 42°21' W 071°02'0 0.0
2017-Oct-09 11:28N 42°21' W 071°02'0 0.0
2017-Oct-09 10:58N 42°21' W 071°02'0 0.0
2017-Oct-09 10:29N 42°21' W 071°02'1 1.2
2017-Oct-09 10:00N 42°21' W 071°01'4 7.1
2017-Oct-09 09:30N 42°20' W 070°56'611.3
2017-Oct-09 09:00N 42°24' W 070°50'5 9.4
2017-Oct-09 08:30N 42°23' W 070°44'5 9.4
2017-Oct-09 08:00N 42°22' W 070°38'5 9.4
2017-Oct-09 07:30N 42°22' W 070°32'5 9.4
2017-Oct-09 07:00N 42°21' W 070°25'5 9.1
2017-Oct-09 06:30N 42°21' W 070°19'5 9.2
2017-Oct-09 06:00N 42°20' W 070°13'2154.3
2017-Oct-09 06:00N 42°18' W 070°12'5 9.4 220 / 241013.0 2.2 20.020.015.0
2017-Oct-09 05:30N 42°20' W 070°06'510.1
2017-Oct-09 05:00N 42°19' W 069°60'510.2
2017-Oct-09 04:30N 42°14' W 069°56'510.6
2017-Oct-09 04:00N 42°10' W 069°53'112 7.1
2017-Oct-08 12:20N 40°25' W 070°44'618.9
2017-Oct-08 12:00N 40°24' W 070°36'11172.3 200 / 281018.010.8 20.018.417.0
2017-Oct-08 11:56N 40°25' W 070°51'712.4
2017-Oct-08 11:21N 40°24' W 071°00'2512.1
2017-Oct-08 09:16N 40°24' W 071°33'511.8
2017-Oct-08 08:52N 40°23' W 071°39'611.9
2017-Oct-08 08:23N 40°23' W 071°47'712.2
2017-Oct-08 07:48N 40°23' W 071°57'412.5
2017-Oct-08 07:29N 40°23' W 072°02'812.3
2017-Oct-08 06:49N 40°23' W 072°12'412.2
2017-Oct-08 06:30N 40°22' W 072°18'612.4
2017-Oct-08 06:00N 40°22' W 072°25'7471.9
2017-Oct-08 06:00N 40°18' W 072°18'   220 / 221015.410.8 20.018.418.0

Dump ship's entire track history